Time,TemperatureF,DewpointF,PressureIn,WindDirection,WindDirectionDegrees,WindSpeedMPH,WindSpeedGustMPH,Humidity,HourlyPrecipIn,Conditions,Clouds,dailyrainin,SoftwareType,DateUTC
2013-03-31 00:00:00,37.1,35.8,29.95,NNW,330,1.0,3.0,95,0.00,,,0.00,WUHU216DAVISVP2,2013-03-31 05:00:00,
2013-03-31 00:05:00,37.1,35.8,29.95,NNW,337,1.0,3.0,95,0.00,,,0.00,WUHU216DAVISVP2,2013-03-31 05:05:00,
2013-03-31 00:10:00,37.0,35.7,29.95,WNW,303,0.0,3.0,95,0.00,,,0.00,WUHU216DAVISVP2,2013-03-31 05:10:00,
2013-03-31 00:15:00,36.9,35.6,29.95,NW,304,0.0,2.0,95,0.00,,,0.00,WUHU216DAVISVP2,2013-03-31 05:15:00,
2013-03-31 00:20:00,36.8,35.5,29.95,NW,321,1.0,2.0,95,0.00,,,0.00,WUHU216DAVISVP2,2013-03-31 05:20:00,
2013-03-31 00:25:00,36.6,35.3,29.95,NW,305,2.0,4.0,95,0.00,,,0.00,WUHU216DAVISVP2,2013-03-31 05:25:00,
2013-03-31 00:30:00,36.3,35.0,29.96,NW,321,1.0,4.0,95,0.00,,,0.00,WUHU216DAVISVP2,2013-03-31 05:30:00,
2013-03-31 00:35:00,36.1,34.8,29.95,NW,324,3.0,4.0,95,0.00,,,0.00,WUHU216DAVISVP2,2013-03-31 05:35:00,
2013-03-31 00:40:00,35.9,34.6,29.95,North,351,0.0,4.0,95,0.00,,,0.00,WUHU216DAVISVP2,2013-03-31 05:40:00,
2013-03-31 00:45:00,36.0,34.7,29.95,NW,316,0.0,3.0,95,0.00,,,0.00,WUHU216DAVISVP2,2013-03-31 05:45:00,
2013-03-31 00:50:00,36.0,34.7,29.95,NW,322,1.0,3.0,95,0.00,,,0.00,WUHU216DAVISVP2,2013-03-31 05:50:00,
2013-03-31 00:55:00,36.0,34.7,29.95,NW,313,1.0,3.0,95,0.00,,,0.00,WUHU216DAVISVP2,2013-03-31 05:55:00,
2013-03-31 01:00:00,36.0,34.7,29.96,North,4,2.0,3.0,95,0.00,,,0.00,WUHU216DAVISVP2,2013-03-31 06:00:00,
2013-03-31 01:05:00,35.9,34.6,29.97,NNE,20,2.0,4.0,95,0.00,,,0.00,WUHU216DAVISVP2,2013-03-31 06:05:00,
2013-03-31 01:10:00,35.7,34.4,29.98,NNW,327,3.0,5.0,95,0.00,,,0.00,WUHU216DAVISVP2,2013-03-31 06:10:00,
2013-03-31 01:15:00,35.3,34.0,29.98,WNW,300,3.0,9.0,95,0.00,,,0.00,WUHU216DAVISVP2,2013-03-31 06:15:00,
2013-03-31 01:20:00,35.1,33.8,29.98,NNW,333,2.0,9.0,95,0.00,,,0.00,WUHU216DAVISVP2,2013-03-31 06:20:00,
2013-03-31 01:25:00,34.9,33.6,29.99,NW,312,3.0,9.0,95,0.00,,,0.00,WUHU216DAVISVP2,2013-03-31 06:25:00,
2013-03-31 01:30:00,34.7,33.4,29.99,WNW,302,3.0,9.0,95,0.00,,,0.00,WUHU216DAVISVP2,2013-03-31 06:30:00,
2013-03-31 01:35:00,34.7,33.4,29.98,NNW,337,1.0,6.0,95,0.00,,,0.00,WUHU216DAVISVP2,2013-03-31 06:35:00,
2013-03-31 01:40:00,34.8,33.5,29.99,NW,312,3.0,6.0,95,0.00,,,0.00,WUHU216DAVISVP2,2013-03-31 06:40:00,
2013-03-31 01:45:00,34.8,33.7,29.99,NW,317,3.0,7.0,96,0.00,,,0.00,WUHU216DAVISVP2,2013-03-31 06:45:00,
2013-03-31 01:50:00,35.0,33.9,29.98,NW,316,3.0,8.0,96,0.00,,,0.00,WUHU216DAVISVP2,2013-03-31 06:50:00,
2013-03-31 01:55:00,35.1,34.0,29.99,North,1,4.0,8.0,96,0.00,,,0.00,WUHU216DAVISVP2,2013-03-31 06:55:00,
2013-03-31 02:00:00,35.2,34.1,29.99,WNW,282,2.0,8.0,96,0.00,,,0.00,WUHU216DAVISVP2,2013-03-31 07:00:00,
2013-03-31 02:05:00,35.3,34.2,29.99,West,271,4.0,8.0,96,0.00,,,0.00,WUHU216DAVISVP2,2013-03-31 07:05:00,
2013-03-31 02:10:00,35.3,34.0,29.99,NW,316,4.0,6.0,95,0.00,,,0.00,WUHU216DAVISVP2,2013-03-31 07:10:00,
2013-03-31 02:15:00,35.2,33.9,29.98,NW,308,4.0,6.0,95,0.00,,,0.00,WUHU216DAVISVP2,2013-03-31 07:15:00,
2013-03-31 02:20:00,35.2,33.9,29.98,NW,321,2.0,6.0,95,0.00,,,0.00,WUHU216DAVISVP2,2013-03-31 07:20:00,
2013-03-31 02:25:00,35.2,33.6,29.98,SSW,207,1.0,6.0,94,0.00,,,0.00,WUHU216DAVISVP2,2013-03-31 07:25:00,
2013-03-31 02:30:00,35.3,33.7,29.98,NW,322,2.0,5.0,94,0.00,,,0.00,WUHU216DAVISVP2,2013-03-31 07:30:00,
2013-03-31 02:35:00,35.3,33.7,29.98,NW,305,3.0,6.0,94,0.00,,,0.00,WUHU216DAVISVP2,2013-03-31 07:35:00,
2013-03-31 02:40:00,35.4,33.5,29.98,NW,310,1.0,6.0,93,0.00,,,0.00,WUHU216DAVISVP2,2013-03-31 07:40:00,
2013-03-31 02:45:00,35.4,33.6,29.98,NNW,330,2.0,6.0,93,0.00,,,0.00,WUHU216DAVISVP2,2013-03-31 07:45:00,
2013-03-31 02:50:00,35.4,33.5,29.98,North,4,1.0,6.0,93,0.00,,,0.00,WUHU216DAVISVP2,2013-03-31 07:50:00,
2013-03-31 02:55:00,35.4,33.3,29.98,WNW,290,3.0,6.0,92,0.00,,,0.00,WUHU216DAVISVP2,2013-03-31 07:55:00,
2013-03-31 03:00:00,35.5,33.4,29.98,NW,304,2.0,6.0,92,0.00,,,0.00,WUHU216DAVISVP2,2013-03-31 08:00:00,
2013-03-31 03:05:00,35.3,33.2,29.97,West,275,1.0,6.0,92,0.00,,,0.00,WUHU216DAVISVP2,2013-03-31 08:05:00,
2013-03-31 03:10:00,35.2,33.1,29.97,WNW,297,0.0,3.0,92,0.00,,,0.00,WUHU216DAVISVP2,2013-03-31 08:10:00,
2013-03-31 03:15:00,35.2,33.3,29.97,NW,321,1.0,3.0,93,0.00,,,0.00,WUHU216DAVISVP2,2013-03-31 08:15:00,
2013-03-31 03:20:00,35.1,33.0,29.97,West,271,1.0,3.0,92,0.00,,,0.00,WUHU216DAVISVP2,2013-03-31 08:20:00,
2013-03-31 03:25:00,34.9,32.8,29.97,NNW,331,4.0,4.0,92,0.00,,,0.00,WUHU216DAVISVP2,2013-03-31 08:25:00,
2013-03-31 03:30:00,34.9,33.0,29.97,NW,319,1.0,5.0,93,0.00,,,0.00,WUHU216DAVISVP2,2013-03-31 08:30:00,
2013-03-31 03:35:00,34.8,32.9,29.96,West,277,2.0,5.0,93,0.00,,,0.00,WUHU216DAVISVP2,2013-03-31 08:35:00,
2013-03-31 03:40:00,34.9,32.8,29.96,WNW,295,3.0,5.0,92,0.00,,,0.00,WUHU216DAVISVP2,2013-03-31 08:40:00,
2013-03-31 03:45:00,35.0,32.9,29.96,NW,312,3.0,5.0,92,0.00,,,0.00,WUHU216DAVISVP2,2013-03-31 08:45:00,
2013-03-31 03:50:00,35.1,33.0,29.96,NW,304,1.0,6.0,92,0.00,,,0.00,WUHU216DAVISVP2,2013-03-31 08:50:00,
2013-03-31 03:55:00,35.2,33.1,29.96,NW,319,2.0,6.0,92,0.00,,,0.00,WUHU216DAVISVP2,2013-03-31 08:55:00,
2013-03-31 04:00:00,35.3,32.9,29.95,NW,313,2.0,6.0,91,0.00,,,0.00,WUHU216DAVISVP2,2013-03-31 09:00:00,
2013-03-31 04:05:00,35.5,32.8,29.95,NW,313,1.0,6.0,90,0.00,,,0.00,WUHU216DAVISVP2,2013-03-31 09:05:00,
2013-03-31 04:10:00,35.7,32.7,29.95,WNW,297,3.0,5.0,89,0.00,,,0.00,WUHU216DAVISVP2,2013-03-31 09:10:00,
2013-03-31 04:15:00,35.7,32.7,29.95,West,273,3.0,5.0,89,0.00,,,0.00,WUHU216DAVISVP2,2013-03-31 09:15:00,
2013-03-31 04:20:00,35.7,32.7,29.95,WNW,295,2.0,5.0,89,0.00,,,0.00,WUHU216DAVISVP2,2013-03-31 09:20:00,
2013-03-31 04:25:00,35.6,32.6,29.94,NW,310,2.0,5.0,89,0.00,,,0.00,WUHU216DAVISVP2,2013-03-31 09:25:00,
2013-03-31 04:30:00,35.6,32.6,29.95,WNW,297,2.0,6.0,89,0.00,,,0.00,WUHU216DAVISVP2,2013-03-31 09:30:00,
2013-03-31 04:35:00,35.6,32.6,29.94,WNW,293,2.0,6.0,89,0.00,,,0.00,WUHU216DAVISVP2,2013-03-31 09:35:00,
2013-03-31 04:40:00,35.4,32.4,29.94,WNW,299,1.0,6.0,89,0.00,,,0.00,WUHU216DAVISVP2,2013-03-31 09:40:00,
2013-03-31 04:45:00,35.3,32.6,29.94,WSW,257,1.0,6.0,90,0.00,,,0.00,WUHU216DAVISVP2,2013-03-31 09:45:00,
2013-03-31 04:50:00,35.2,32.5,29.94,West,260,1.0,6.0,90,0.00,,,0.00,WUHU216DAVISVP2,2013-03-31 09:50:00,
2013-03-31 04:55:00,35.1,32.4,29.94,WSW,255,1.0,3.0,90,0.00,,,0.00,WUHU216DAVISVP2,2013-03-31 09:55:00,
2013-03-31 05:00:00,34.9,32.2,29.94,WSW,255,1.0,3.0,90,0.00,,,0.00,WUHU216DAVISVP2,2013-03-31 10:00:00,
2013-03-31 05:05:00,34.7,32.0,29.94,West,275,1.0,2.0,90,0.00,,,0.00,WUHU216DAVISVP2,2013-03-31 10:05:00,
2013-03-31 05:10:00,34.7,32.0,29.94,WSW,245,2.0,3.0,90,0.00,,,0.00,WUHU216DAVISVP2,2013-03-31 10:10:00,
2013-03-31 05:15:00,34.5,31.8,29.95,WNW,282,2.0,3.0,90,0.00,,,0.00,WUHU216DAVISVP2,2013-03-31 10:15:00,
2013-03-31 05:20:00,34.3,31.9,29.95,NW,304,2.0,5.0,91,0.00,,,0.00,WUHU216DAVISVP2,2013-03-31 10:20:00,
2013-03-31 05:25:00,34.1,31.7,29.95,West,281,3.0,9.0,91,0.00,,,0.00,WUHU216DAVISVP2,2013-03-31 10:25:00,
2013-03-31 05:30:00,34.0,31.9,29.95,NW,307,2.0,9.0,92,0.00,,,0.00,WUHU216DAVISVP2,2013-03-31 10:30:00,
2013-03-31 05:35:00,33.7,31.6,29.95,West,271,2.0,9.0,92,0.00,,,0.00,WUHU216DAVISVP2,2013-03-31 10:35:00,
2013-03-31 05:40:00,33.4,31.5,29.95,West,273,2.0,9.0,93,0.00,,,0.00,WUHU216DAVISVP2,2013-03-31 10:40:00,
2013-03-31 05:45:00,33.2,31.3,29.94,WNW,295,2.0,9.0,93,0.00,,,0.00,WUHU216DAVISVP2,2013-03-31 10:45:00,
2013-03-31 05:50:00,33.2,31.6,29.95,NW,304,2.0,9.0,94,0.00,,,0.00,WUHU216DAVISVP2,2013-03-31 10:50:00,
2013-03-31 05:55:00,33.3,31.7,29.94,West,263,1.0,7.0,94,0.00,,,0.00,WUHU216DAVISVP2,2013-03-31 10:55:00,
2013-03-31 06:00:00,33.3,31.7,29.95,WNW,284,2.0,7.0,94,0.00,,,0.00,WUHU216DAVISVP2,2013-03-31 11:00:00,
2013-03-31 06:05:00,33.4,31.8,29.95,West,273,1.0,7.0,94,0.00,,,0.00,WUHU216DAVISVP2,2013-03-31 11:05:00,
2013-03-31 06:10:00,33.4,31.8,29.94,West,275,2.0,7.0,94,0.00,,,0.00,WUHU216DAVISVP2,2013-03-31 11:10:00,
2013-03-31 06:15:00,33.5,31.9,29.95,West,273,3.0,7.0,94,0.00,,,0.00,WUHU216DAVISVP2,2013-03-31 11:15:00,
2013-03-31 06:20:00,33.6,32.0,29.95,NW,316,6.0,9.0,94,0.00,,,0.00,WUHU216DAVISVP2,2013-03-31 11:20:00,
2013-03-31 06:25:00,33.5,31.9,29.95,WNW,301,3.0,9.0,94,0.00,,,0.00,WUHU216DAVISVP2,2013-03-31 11:25:00,
2013-03-31 06:30:00,33.4,31.8,29.95,NW,308,4.0,9.0,94,0.00,,,0.00,WUHU216DAVISVP2,2013-03-31 11:30:00,
2013-03-31 06:35:00,33.3,31.7,29.95,WNW,287,2.0,9.0,94,0.00,,,0.00,WUHU216DAVISVP2,2013-03-31 11:35:00,
2013-03-31 06:40:00,33.1,31.5,29.95,WNW,302,3.0,10.0,94,0.00,,,0.00,WUHU216DAVISVP2,2013-03-31 11:40:00,
2013-03-31 06:45:00,33.1,31.5,29.95,WNW,285,1.0,10.0,94,0.00,,,0.00,WUHU216DAVISVP2,2013-03-31 11:45:00,
2013-03-31 06:50:00,33.0,31.4,29.95,WNW,295,4.0,10.0,94,0.00,,,0.00,WUHU216DAVISVP2,2013-03-31 11:50:00,
2013-03-31 06:55:00,32.9,31.3,29.95,NW,323,3.0,10.0,94,0.00,,,0.00,WUHU216DAVISVP2,2013-03-31 11:55:00,
2013-03-31 07:00:00,32.9,31.3,29.95,WNW,288,2.0,8.0,94,0.00,,,0.00,WUHU216DAVISVP2,2013-03-31 12:00:00,
2013-03-31 07:05:00,32.9,31.0,29.95,WNW,288,2.0,7.0,93,0.00,,,0.00,WUHU216DAVISVP2,2013-03-31 12:05:00,
2013-03-31 07:10:00,32.8,31.0,29.95,WNW,282,3.0,7.0,93,0.00,,,0.00,WUHU216DAVISVP2,2013-03-31 12:10:00,
2013-03-31 07:15:00,32.7,30.9,29.95,WNW,286,3.0,7.0,93,0.00,,,0.00,WUHU216DAVISVP2,2013-03-31 12:15:00,
2013-03-31 07:20:00,32.7,31.1,29.95,WNW,297,4.0,7.0,94,0.00,,,0.00,WUHU216DAVISVP2,2013-03-31 12:20:00,
2013-03-31 07:25:00,32.7,30.9,29.95,NNW,328,3.0,10.0,93,0.00,,,0.00,WUHU216DAVISVP2,2013-03-31 12:25:00,
2013-03-31 07:30:00,32.7,30.6,29.95,WNW,298,4.0,11.0,92,0.00,,,0.00,WUHU216DAVISVP2,2013-03-31 12:30:00,
2013-03-31 07:35:00,32.8,30.4,29.95,West,268,2.0,11.0,91,0.00,,,0.00,WUHU216DAVISVP2,2013-03-31 12:35:00,
2013-03-31 07:40:00,32.9,30.5,29.96,North,352,8.0,11.0,91,0.00,,,0.00,WUHU216DAVISVP2,2013-03-31 12:40:00,
2013-03-31 07:45:00,33.1,30.4,29.95,NW,321,4.0,11.0,90,0.00,,,0.00,WUHU216DAVISVP2,2013-03-31 12:45:00,
2013-03-31 07:50:00,33.3,30.1,29.96,NW,307,4.0,9.0,88,0.00,,,0.00,WUHU216DAVISVP2,2013-03-31 12:50:00,
2013-03-31 07:55:00,33.5,30.0,29.96,WNW,296,5.0,9.0,87,0.00,,,0.00,WUHU216DAVISVP2,2013-03-31 12:55:00,
2013-03-31 08:00:00,33.8,29.7,29.96,NW,322,7.0,11.0,85,0.00,,,0.00,WUHU216DAVISVP2,2013-03-31 13:00:00,
2013-03-31 08:05:00,33.9,29.6,29.96,WNW,301,3.0,13.0,84,0.00,,,0.00,WUHU216DAVISVP2,2013-03-31 13:05:00,
2013-03-31 08:10:00,34.0,29.4,29.97,NW,313,4.0,13.0,83,0.00,,,0.00,WUHU216DAVISVP2,2013-03-31 13:10:00,
2013-03-31 08:15:00,34.2,29.3,29.97,NW,317,4.0,13.0,82,0.00,,,0.00,WUHU216DAVISVP2,2013-03-31 13:15:00,
2013-03-31 08:20:00,34.3,29.1,29.97,NNW,330,4.0,10.0,81,0.00,,,0.00,WUHU216DAVISVP2,2013-03-31 13:20:00,
2013-03-31 08:25:00,34.5,29.3,29.97,NW,311,4.0,10.0,81,0.00,,,0.00,WUHU216DAVISVP2,2013-03-31 13:25:00,
2013-03-31 08:30:00,34.5,29.3,29.97,NNW,328,5.0,10.0,81,0.00,,,0.00,WUHU216DAVISVP2,2013-03-31 13:30:00,
2013-03-31 08:35:00,34.5,29.0,29.98,WNW,302,6.0,13.0,80,0.00,,,0.00,WUHU216DAVISVP2,2013-03-31 13:35:00,
2013-03-31 08:40:00,34.6,29.1,29.98,WNW,293,5.0,13.0,80,0.00,,,0.00,WUHU216DAVISVP2,2013-03-31 13:40:00,
2013-03-31 08:45:00,34.7,29.2,29.98,NW,309,6.0,13.0,80,0.00,,,0.00,WUHU216DAVISVP2,2013-03-31 13:45:00,
2013-03-31 08:50:00,34.8,29.3,29.98,SW,228,6.0,13.0,80,0.00,,,0.00,WUHU216DAVISVP2,2013-03-31 13:50:00,
2013-03-31 08:55:00,35.0,29.2,29.98,NW,325,7.0,13.0,79,0.00,,,0.00,WUHU216DAVISVP2,2013-03-31 13:55:00,
2013-03-31 09:00:00,35.3,29.2,29.98,North,355,11.0,13.0,78,0.00,,,0.00,WUHU216DAVISVP2,2013-03-31 14:00:00,
2013-03-31 09:05:00,35.4,29.2,29.98,NW,313,6.0,13.0,78,0.00,,,0.00,WUHU216DAVISVP2,2013-03-31 14:05:00,
2013-03-31 09:10:00,35.6,29.4,29.98,NNW,330,8.0,13.0,78,0.00,,,0.00,WUHU216DAVISVP2,2013-03-31 14:10:00,
2013-03-31 09:15:00,35.6,29.1,29.99,NNW,334,6.0,13.0,77,0.00,,,0.00,WUHU216DAVISVP2,2013-03-31 14:15:00,
2013-03-31 09:20:00,35.8,29.3,29.99,NNW,336,4.0,13.0,77,0.00,,,0.00,WUHU216DAVISVP2,2013-03-31 14:20:00,
2013-03-31 09:25:00,36.1,29.3,29.99,NW,319,4.0,12.0,76,0.00,,,0.00,WUHU216DAVISVP2,2013-03-31 14:25:00,
2013-03-31 09:30:00,36.0,28.9,29.99,NNW,327,5.0,12.0,75,0.00,,,0.00,WUHU216DAVISVP2,2013-03-31 14:30:00,
2013-03-31 09:35:00,36.1,29.3,29.99,NNW,331,7.0,11.0,76,0.00,,,0.00,WUHU216DAVISVP2,2013-03-31 14:35:00,
2013-03-31 09:40:00,35.9,29.4,30.00,NW,308,6.0,11.0,77,0.00,,,0.00,WUHU216DAVISVP2,2013-03-31 14:40:00,
2013-03-31 09:45:00,35.9,29.4,30.00,NNW,331,12.0,12.0,77,0.00,,,0.00,WUHU216DAVISVP2,2013-03-31 14:45:00,
2013-03-31 09:50:00,35.9,29.1,29.99,NW,319,6.0,13.0,76,0.00,,,0.00,WUHU216DAVISVP2,2013-03-31 14:50:00,
2013-03-31 09:55:00,36.0,29.2,29.99,NW,309,5.0,13.0,76,0.00,,,0.00,WUHU216DAVISVP2,2013-03-31 14:55:00,
2013-03-31 10:00:00,36.0,28.9,29.99,NNE,30,6.0,15.0,75,0.00,,,0.00,WUHU216DAVISVP2,2013-03-31 15:00:00,
2013-03-31 10:05:00,36.0,28.9,30.00,NW,318,6.0,15.0,75,0.00,,,0.00,WUHU216DAVISVP2,2013-03-31 15:05:00,
2013-03-31 10:10:00,36.7,29.2,29.99,North,349,4.0,15.0,74,0.00,,,0.00,WUHU216DAVISVP2,2013-03-31 15:10:00,
2013-03-31 10:15:00,36.7,28.9,30.00,NNW,336,5.0,15.0,73,0.00,,,0.00,WUHU216DAVISVP2,2013-03-31 15:15:00,
2013-03-31 10:20:00,36.6,28.8,30.00,North,2,6.0,12.0,73,0.00,,,0.00,WUHU216DAVISVP2,2013-03-31 15:20:00,
2013-03-31 10:25:00,36.7,28.9,30.00,NW,309,6.0,12.0,73,0.00,,,0.00,WUHU216DAVISVP2,2013-03-31 15:25:00,
2013-03-31 10:30:00,37.1,28.6,30.00,NNW,333,5.0,12.0,71,0.00,,,0.00,WUHU216DAVISVP2,2013-03-31 15:30:00,
2013-03-31 10:35:00,36.9,28.8,30.01,WNW,300,6.0,12.0,72,0.00,,,0.00,WUHU216DAVISVP2,2013-03-31 15:35:00,
2013-03-31 10:40:00,37.1,28.6,30.01,NNW,335,7.0,12.0,71,0.00,,,0.00,WUHU216DAVISVP2,2013-03-31 15:40:00,
2013-03-31 10:45:00,36.5,28.0,30.01,NNW,327,9.0,15.0,71,0.00,,,0.00,WUHU216DAVISVP2,2013-03-31 15:45:00,
2013-03-31 10:50:00,36.3,27.8,30.01,NNW,328,5.0,15.0,71,0.00,,,0.00,WUHU216DAVISVP2,2013-03-31 15:50:00,
2013-03-31 10:55:00,36.2,28.4,30.01,NNW,336,8.0,15.0,73,0.00,,,0.00,WUHU216DAVISVP2,2013-03-31 15:55:00,
2013-03-31 11:00:00,36.1,28.3,30.00,WNW,295,7.0,15.0,73,0.00,,,0.00,WUHU216DAVISVP2,2013-03-31 16:00:00,
2013-03-31 11:05:00,36.2,28.4,30.01,NW,326,7.0,13.0,73,0.00,,,0.00,WUHU216DAVISVP2,2013-03-31 16:05:00,
2013-03-31 11:10:00,36.3,28.5,30.01,NW,325,6.0,13.0,73,0.00,,,0.00,WUHU216DAVISVP2,2013-03-31 16:10:00,
2013-03-31 11:15:00,36.7,28.9,30.01,WNW,288,3.0,12.0,73,0.00,,,0.00,WUHU216DAVISVP2,2013-03-31 16:15:00,
2013-03-31 11:20:00,36.5,28.3,30.01,NNW,345,6.0,11.0,72,0.00,,,0.00,WUHU216DAVISVP2,2013-03-31 16:20:00,
2013-03-31 11:25:00,36.8,27.9,30.01,NNW,330,6.0,11.0,70,0.00,,,0.00,WUHU216DAVISVP2,2013-03-31 16:25:00,
2013-03-31 11:30:00,36.6,26.8,30.01,NNW,336,8.0,13.0,67,0.00,,,0.00,WUHU216DAVISVP2,2013-03-31 16:30:00,
2013-03-31 11:35:00,37.0,27.5,30.02,NW,325,8.0,14.0,68,0.00,,,0.00,WUHU216DAVISVP2,2013-03-31 16:35:00,
2013-03-31 11:40:00,36.9,27.0,30.02,NNW,328,7.0,14.0,67,0.00,,,0.00,WUHU216DAVISVP2,2013-03-31 16:40:00,
2013-03-31 11:45:00,37.1,27.6,30.02,NE,51,6.0,14.0,68,0.00,,,0.00,WUHU216DAVISVP2,2013-03-31 16:45:00,
2013-03-31 11:50:00,37.2,26.6,30.02,NW,314,7.0,14.0,65,0.00,,,0.00,WUHU216DAVISVP2,2013-03-31 16:50:00,
2013-03-31 11:55:00,37.1,26.0,30.02,WNW,284,9.0,14.0,64,0.00,,,0.00,WUHU216DAVISVP2,2013-03-31 16:55:00,
2013-03-31 12:00:00,37.0,25.6,30.02,NW,319,9.0,15.0,63,0.00,,,0.00,WUHU216DAVISVP2,2013-03-31 17:00:00,
2013-03-31 12:05:00,37.4,26.0,30.02,NNW,338,6.0,15.0,63,0.00,,,0.00,WUHU216DAVISVP2,2013-03-31 17:05:00,
2013-03-31 12:10:00,37.8,26.0,30.02,NW,314,8.0,15.0,62,0.00,,,0.00,WUHU216DAVISVP2,2013-03-31 17:10:00,
2013-03-31 12:15:00,37.7,26.3,30.02,North,1,4.0,15.0,63,0.00,,,0.00,WUHU216DAVISVP2,2013-03-31 17:15:00,
2013-03-31 12:20:00,37.8,26.0,30.02,NNW,342,6.0,14.0,62,0.00,,,0.00,WUHU216DAVISVP2,2013-03-31 17:20:00,
2013-03-31 12:25:00,37.9,25.7,30.02,NNE,16,6.0,11.0,61,0.00,,,0.00,WUHU216DAVISVP2,2013-03-31 17:25:00,
2013-03-31 12:30:00,38.2,25.9,30.02,NNW,328,6.0,11.0,61,0.00,,,0.00,WUHU216DAVISVP2,2013-03-31 17:30:00,
2013-03-31 12:35:00,38.5,26.3,30.02,NW,320,7.0,12.0,61,0.00,,,0.00,WUHU216DAVISVP2,2013-03-31 17:35:00,
2013-03-31 12:40:00,38.4,25.8,30.03,NNW,332,5.0,12.0,60,0.00,,,0.00,WUHU216DAVISVP2,2013-03-31 17:40:00,
2013-03-31 12:45:00,38.1,25.5,30.03,NW,309,6.0,15.0,60,0.00,,,0.00,WUHU216DAVISVP2,2013-03-31 17:45:00,
2013-03-31 12:50:00,38.5,25.9,30.03,North,11,4.0,15.0,60,0.00,,,0.00,WUHU216DAVISVP2,2013-03-31 17:50:00,
2013-03-31 12:55:00,39.2,25.7,30.02,NNW,348,5.0,15.0,58,0.00,,,0.00,WUHU216DAVISVP2,2013-03-31 17:55:00,
2013-03-31 13:00:00,39.1,24.7,30.02,North,6,4.0,15.0,56,0.00,,,0.00,WUHU216DAVISVP2,2013-03-31 18:00:00,
2013-03-31 13:05:00,39.1,25.1,30.02,NNW,330,7.0,12.0,57,0.00,,,0.00,WUHU216DAVISVP2,2013-03-31 18:05:00,
2013-03-31 13:11:00,39.4,25.0,30.02,NNE,30,11.0,12.0,56,0.00,,,0.00,WUHU216DAVISVP2,2013-03-31 18:11:00,
2013-03-31 13:16:00,39.5,23.8,30.02,WNW,302,7.0,15.0,53,0.00,,,0.00,WUHU216DAVISVP2,2013-03-31 18:16:00,
2013-03-31 13:21:00,39.2,23.5,30.02,NNW,331,8.0,16.0,53,0.00,,,0.00,WUHU216DAVISVP2,2013-03-31 18:21:00,
2013-03-31 13:26:00,38.9,23.7,30.02,NNW,329,7.0,16.0,54,0.00,,,0.00,WUHU216DAVISVP2,2013-03-31 18:26:00,
2013-03-31 13:30:00,39.5,25.1,30.02,NNW,338,6.0,16.0,56,0.00,,,0.00,WUHU216DAVISVP2,2013-03-31 18:30:00,
2013-03-31 13:31:00,39.7,25.3,30.02,North,352,6.0,16.0,56,0.00,,,0.00,WUHU216DAVISVP2,2013-03-31 18:31:00,
2013-03-31 13:36:00,40.1,24.8,30.02,North,2,4.0,16.0,54,0.00,,,0.00,WUHU216DAVISVP2,2013-03-31 18:36:00,
2013-03-31 13:41:00,40.0,23.8,30.02,NW,324,6.0,16.0,52,0.00,,,0.00,WUHU216DAVISVP2,2013-03-31 18:41:00,
2013-03-31 13:47:00,40.1,25.2,30.02,North,349,7.0,13.0,55,0.00,,,0.00,WUHU216DAVISVP2,2013-03-31 18:47:00,
2013-03-31 13:52:00,39.9,24.6,30.02,NW,309,5.0,13.0,54,0.00,,,0.00,WUHU216DAVISVP2,2013-03-31 18:52:00,
2013-03-31 13:57:00,39.8,25.0,30.02,NW,313,6.0,13.0,55,0.00,,,0.00,WUHU216DAVISVP2,2013-03-31 18:57:00,
2013-03-31 14:00:00,39.3,24.5,30.02,NNW,338,5.0,13.0,55,0.00,,,0.00,WUHU216DAVISVP2,2013-03-31 19:00:00,
2013-03-31 14:02:00,39.3,24.9,30.02,North,8,14.0,14.0,56,0.00,,,0.00,WUHU216DAVISVP2,2013-03-31 19:02:00,
2013-03-31 14:07:00,39.6,24.8,30.02,WNW,303,8.0,14.0,55,0.00,,,0.00,WUHU216DAVISVP2,2013-03-31 19:07:00,
2013-03-31 14:12:00,40.0,24.7,30.02,NNW,327,7.0,14.0,54,0.00,,,0.00,WUHU216DAVISVP2,2013-03-31 19:12:00,
2013-03-31 14:17:00,39.7,24.4,30.02,NNE,19,5.0,14.0,54,0.00,,,0.00,WUHU216DAVISVP2,2013-03-31 19:17:00,
2013-03-31 14:22:00,39.7,24.4,30.01,NNE,17,5.0,13.0,54,0.00,,,0.00,WUHU216DAVISVP2,2013-03-31 19:22:00,
2013-03-31 14:27:00,40.3,24.5,30.02,NW,323,7.0,13.0,53,0.00,,,0.00,WUHU216DAVISVP2,2013-03-31 19:27:00,
2013-03-31 14:30:00,39.4,23.7,30.02,NW,315,6.0,14.0,53,0.00,,,0.00,WUHU216DAVISVP2,2013-03-31 19:30:00,
2013-03-31 14:32:00,39.3,24.0,30.01,NNW,333,5.0,13.0,54,0.00,,,0.00,WUHU216DAVISVP2,2013-03-31 19:32:00,
2013-03-31 14:37:00,39.3,24.0,30.02,NW,307,6.0,13.0,54,0.00,,,0.00,WUHU216DAVISVP2,2013-03-31 19:37:00,
2013-03-31 14:42:00,39.2,23.9,30.02,WNW,303,9.0,11.0,54,0.00,,,0.00,WUHU216DAVISVP2,2013-03-31 19:42:00,
2013-03-31 14:47:00,39.3,24.0,30.01,NW,321,6.0,11.0,54,0.00,,,0.00,WUHU216DAVISVP2,2013-03-31 19:47:00,
2013-03-31 14:52:00,39.6,23.4,30.02,NNW,346,6.0,11.0,52,0.00,,,0.00,WUHU216DAVISVP2,2013-03-31 19:52:00,
2013-03-31 14:57:00,39.8,24.0,30.01,ENE,71,5.0,11.0,53,0.00,,,0.00,WUHU216DAVISVP2,2013-03-31 19:57:00,
2013-03-31 15:00:00,39.9,24.1,30.01,NNW,338,5.0,11.0,53,0.00,,,0.00,WUHU216DAVISVP2,2013-03-31 20:00:00,
2013-03-31 15:02:00,40.0,24.2,30.01,NNE,13,7.0,11.0,53,0.00,,,0.00,WUHU216DAVISVP2,2013-03-31 20:02:00,
2013-03-31 15:07:00,40.2,24.4,30.01,NNW,342,6.0,11.0,53,0.00,,,0.00,WUHU216DAVISVP2,2013-03-31 20:07:00,
2013-03-31 15:12:00,40.2,23.9,30.01,North,358,5.0,10.0,52,0.00,,,0.00,WUHU216DAVISVP2,2013-03-31 20:12:00,
2013-03-31 15:17:00,40.4,24.6,30.01,NW,321,9.0,15.0,53,0.00,,,0.00,WUHU216DAVISVP2,2013-03-31 20:17:00,
2013-03-31 15:22:00,40.0,23.8,30.01,West,274,7.0,15.0,52,0.00,,,0.00,WUHU216DAVISVP2,2013-03-31 20:22:00,
2013-03-31 15:27:00,39.9,23.7,30.01,NW,309,7.0,15.0,52,0.00,,,0.00,WUHU216DAVISVP2,2013-03-31 20:27:00,
2013-03-31 15:30:00,40.2,23.5,30.01,NNW,338,6.0,15.0,51,0.00,,,0.00,WUHU216DAVISVP2,2013-03-31 20:30:00,
2013-03-31 15:32:00,40.2,23.0,30.01,NW,324,8.0,15.0,50,0.00,,,0.00,WUHU216DAVISVP2,2013-03-31 20:32:00,
2013-03-31 15:37:00,40.1,22.0,30.01,NNE,13,11.0,14.0,48,0.00,,,0.00,WUHU216DAVISVP2,2013-03-31 20:37:00,
2013-03-31 15:42:00,40.2,22.5,30.01,NW,314,5.0,14.0,49,0.00,,,0.00,WUHU216DAVISVP2,2013-03-31 20:42:00,
2013-03-31 15:47:00,41.1,23.3,30.02,SW,234,5.0,14.0,49,0.00,,,0.00,WUHU216DAVISVP2,2013-03-31 20:47:00,
2013-03-31 15:52:00,40.6,22.4,30.02,West,274,7.0,14.0,48,0.00,,,0.00,WUHU216DAVISVP2,2013-03-31 20:52:00,
2013-03-31 15:57:00,39.9,22.2,30.02,North,357,5.0,12.0,49,0.00,,,0.00,WUHU216DAVISVP2,2013-03-31 20:57:00,
2013-03-31 16:00:00,39.7,21.6,30.02,NW,315,5.0,14.0,48,0.00,,,0.00,WUHU216DAVISVP2,2013-03-31 21:00:00,
2013-03-31 16:02:00,39.6,21.9,30.02,NNW,328,7.0,12.0,49,0.00,,,0.00,WUHU216DAVISVP2,2013-03-31 21:02:00,
2013-03-31 16:07:00,39.4,22.2,30.03,NNW,346,7.0,14.0,50,0.00,,,0.00,WUHU216DAVISVP2,2013-03-31 21:07:00,
2013-03-31 16:12:00,39.6,22.4,30.02,North,354,5.0,14.0,50,0.00,,,0.00,WUHU216DAVISVP2,2013-03-31 21:12:00,
2013-03-31 16:17:00,39.9,22.7,30.03,NNW,348,4.0,14.0,50,0.00,,,0.00,WUHU216DAVISVP2,2013-03-31 21:17:00,
2013-03-31 16:22:00,39.5,22.3,30.02,NW,322,4.0,14.0,50,0.00,,,0.00,WUHU216DAVISVP2,2013-03-31 21:22:00,
2013-03-31 16:27:00,38.8,21.7,30.02,NNW,334,5.0,14.0,50,0.00,,,0.00,WUHU216DAVISVP2,2013-03-31 21:27:00,
2013-03-31 16:30:00,38.5,21.9,30.02,NNW,338,6.0,14.0,51,0.00,,,0.00,WUHU216DAVISVP2,2013-03-31 21:30:00,
2013-03-31 16:32:00,38.3,22.6,30.03,North,9,6.0,14.0,53,0.00,,,0.00,WUHU216DAVISVP2,2013-03-31 21:32:00,
2013-03-31 16:37:00,37.6,22.0,30.03,North,354,8.0,14.0,53,0.00,,,0.00,WUHU216DAVISVP2,2013-03-31 21:37:00,
2013-03-31 16:42:00,37.2,22.9,30.03,NNW,333,7.0,14.0,56,0.00,,,0.00,WUHU216DAVISVP2,2013-03-31 21:42:00,
2013-03-31 16:47:00,36.7,23.3,30.03,North,8,6.0,12.0,58,0.00,,,0.00,WUHU216DAVISVP2,2013-03-31 21:47:00,
2013-03-31 16:52:00,36.1,23.1,30.04,NW,312,7.0,10.0,59,0.00,,,0.00,WUHU216DAVISVP2,2013-03-31 21:52:00,
2013-03-31 16:57:00,35.2,25.0,30.04,NW,308,10.0,10.0,66,0.00,,,0.00,WUHU216DAVISVP2,2013-03-31 21:57:00,
2013-03-31 17:00:00,34.7,24.9,30.04,NW,315,5.0,11.0,67,0.00,,,0.00,WUHU216DAVISVP2,2013-03-31 22:00:00,
2013-03-31 17:02:00,34.3,25.6,30.04,NNW,348,10.0,11.0,70,0.00,,,0.00,WUHU216DAVISVP2,2013-03-31 22:02:00,
2013-03-31 17:07:00,33.5,26.1,30.05,NNW,340,4.0,15.0,74,0.00,,,0.00,WUHU216DAVISVP2,2013-03-31 22:07:00,
2013-03-31 17:12:00,32.9,24.9,30.05,North,8,6.0,15.0,72,0.00,,,0.00,WUHU216DAVISVP2,2013-03-31 22:12:00,
2013-03-31 17:17:00,32.9,25.2,30.05,NNW,332,5.0,15.0,73,0.00,,,0.00,WUHU216DAVISVP2,2013-03-31 22:17:00,
2013-03-31 17:22:00,32.5,24.8,30.05,North,2,6.0,15.0,73,0.00,,,0.00,WUHU216DAVISVP2,2013-03-31 22:22:00,
2013-03-31 17:27:00,32.2,25.8,30.06,North,3,3.0,12.0,77,0.00,,,0.00,WUHU216DAVISVP2,2013-03-31 22:27:00,
2013-03-31 17:30:00,32.0,25.3,30.06,NNW,338,5.0,15.0,76,0.00,,,0.00,WUHU216DAVISVP2,2013-03-31 22:30:00,
2013-03-31 17:33:00,31.8,24.8,30.06,NE,41,6.0,10.0,75,0.00,,,0.00,WUHU216DAVISVP2,2013-03-31 22:33:00,
2013-03-31 17:37:00,31.8,24.8,30.06,NNW,344,6.0,9.0,75,0.00,,,0.00,WUHU216DAVISVP2,2013-03-31 22:37:00,
2013-03-31 17:42:00,31.8,24.5,30.06,NNE,14,3.0,9.0,74,0.00,,,0.00,WUHU216DAVISVP2,2013-03-31 22:42:00,
2013-03-31 17:48:00,31.8,24.5,30.06,NW,325,4.0,12.0,74,0.00,,,0.00,WUHU216DAVISVP2,2013-03-31 22:48:00,
2013-03-31 17:53:00,31.9,22.9,30.06,NW,314,3.0,12.0,69,0.00,,,0.00,WUHU216DAVISVP2,2013-03-31 22:53:00,
2013-03-31 17:58:00,32.3,22.6,30.06,NW,321,9.0,12.0,67,0.00,,,0.00,WUHU216DAVISVP2,2013-03-31 22:58:00,
2013-03-31 18:00:00,32.2,20.6,30.06,NNW,338,4.0,12.0,62,0.00,,,0.00,WUHU216DAVISVP2,2013-03-31 23:00:00,
2013-03-31 18:03:00,32.1,19.8,30.06,NNW,345,4.0,11.0,60,0.00,,,0.00,WUHU216DAVISVP2,2013-03-31 23:03:00,
2013-03-31 18:08:00,32.4,20.5,30.06,NW,320,7.0,11.0,61,0.00,,,0.00,WUHU216DAVISVP2,2013-03-31 23:08:00,
2013-03-31 18:13:00,32.4,19.3,30.06,NW,315,5.0,11.0,58,0.00,,,0.00,WUHU216DAVISVP2,2013-03-31 23:13:00,
2013-03-31 18:18:00,32.5,17.7,30.06,WNW,283,4.0,11.0,54,0.00,,,0.00,WUHU216DAVISVP2,2013-03-31 23:18:00,
2013-03-31 18:23:00,32.6,17.8,30.07,NW,311,5.0,11.0,54,0.00,,,0.00,WUHU216DAVISVP2,2013-03-31 23:23:00,
2013-03-31 18:28:00,32.7,16.1,30.07,NNW,339,5.0,10.0,50,0.00,,,0.00,WUHU216DAVISVP2,2013-03-31 23:28:00,
2013-03-31 18:30:00,32.8,16.2,30.07,NW,315,4.0,11.0,50,0.00,,,0.00,WUHU216DAVISVP2,2013-03-31 23:30:00,
2013-03-31 18:33:00,32.8,15.7,30.07,WNW,290,7.0,10.0,49,0.00,,,0.00,WUHU216DAVISVP2,2013-03-31 23:33:00,
2013-03-31 18:38:00,32.8,15.6,30.08,NW,316,6.0,9.0,49,0.00,,,0.00,WUHU216DAVISVP2,2013-03-31 23:38:00,
2013-03-31 18:43:00,32.8,16.6,30.08,WNW,297,4.0,9.0,51,0.00,,,0.00,WUHU216DAVISVP2,2013-03-31 23:43:00,
2013-03-31 18:48:00,32.5,16.8,30.08,NW,304,5.0,11.0,52,0.00,,,0.00,WUHU216DAVISVP2,2013-03-31 23:48:00,
2013-03-31 18:53:00,32.4,17.1,30.08,NNW,341,5.0,11.0,53,0.00,,,0.00,WUHU216DAVISVP2,2013-03-31 23:53:00,
2013-03-31 18:58:00,32.3,17.9,30.08,North,5,4.0,11.0,55,0.00,,,0.00,WUHU216DAVISVP2,2013-03-31 23:58:00,
2013-03-31 19:00:00,32.2,18.2,30.08,NNW,338,4.0,11.0,56,0.00,,,0.00,WUHU216DAVISVP2,2013-04-01 00:00:00,
2013-03-31 19:03:00,32.1,18.6,30.08,NW,325,5.0,9.0,57,0.00,,,0.00,WUHU216DAVISVP2,2013-04-01 00:03:00,
2013-03-31 19:08:00,31.8,18.3,30.09,NW,319,3.0,16.0,57,0.00,,,0.00,WUHU216DAVISVP2,2013-04-01 00:08:00,
2013-03-31 19:13:00,31.8,17.5,30.09,NNW,338,4.0,16.0,55,0.00,,,0.00,WUHU216DAVISVP2,2013-04-01 00:13:00,
2013-03-31 19:18:00,31.6,16.8,30.09,NW,325,4.0,16.0,54,0.00,,,0.00,WUHU216DAVISVP2,2013-04-01 00:18:00,
2013-03-31 19:23:00,31.4,16.7,30.09,NNW,331,7.0,11.0,54,0.00,,,0.00,WUHU216DAVISVP2,2013-04-01 00:23:00,
2013-03-31 19:28:00,31.3,16.1,30.09,NW,311,7.0,11.0,53,0.00,,,0.00,WUHU216DAVISVP2,2013-04-01 00:28:00,
2013-03-31 19:30:00,31.3,15.2,30.10,NW,315,4.0,16.0,51,0.00,,,0.00,WUHU216DAVISVP2,2013-04-01 00:30:00,
2013-03-31 19:33:00,31.3,15.2,30.09,North,9,3.0,15.0,51,0.00,,,0.00,WUHU216DAVISVP2,2013-04-01 00:33:00,
2013-03-31 19:38:00,31.2,14.2,30.10,NNW,327,5.0,15.0,49,0.00,,,0.00,WUHU216DAVISVP2,2013-04-01 00:38:00,
2013-03-31 19:43:00,31.1,15.9,30.10,NW,316,5.0,15.0,53,0.00,,,0.00,WUHU216DAVISVP2,2013-04-01 00:43:00,
2013-03-31 19:48:00,30.9,16.6,30.10,NNW,339,4.0,15.0,55,0.00,,,0.00,WUHU216DAVISVP2,2013-04-01 00:48:00,
2013-03-31 19:53:00,30.6,15.9,30.11,NW,324,7.0,11.0,54,0.00,,,0.00,WUHU216DAVISVP2,2013-04-01 00:53:00,
2013-03-31 19:58:00,30.3,15.6,30.11,NNW,329,5.0,12.0,54,0.00,,,0.00,WUHU216DAVISVP2,2013-04-01 00:58:00,
2013-03-31 20:00:00,30.2,15.5,30.11,NW,315,5.0,12.0,54,0.00,,,0.00,WUHU216DAVISVP2,2013-04-01 01:00:00,
2013-03-31 20:03:00,30.1,15.0,30.11,NW,318,6.0,13.0,53,0.00,,,0.00,WUHU216DAVISVP2,2013-04-01 01:03:00,
2013-03-31 20:08:00,29.9,14.8,30.12,NNW,334,5.0,13.0,53,0.00,,,0.00,WUHU216DAVISVP2,2013-04-01 01:08:00,
2013-03-31 20:13:00,29.7,15.1,30.12,NW,311,5.0,13.0,54,0.00,,,0.00,WUHU216DAVISVP2,2013-04-01 01:13:00,
2013-03-31 20:18:00,29.5,16.2,30.12,NNW,327,6.0,13.0,57,0.00,,,0.00,WUHU216DAVISVP2,2013-04-01 01:18:00,
2013-03-31 20:23:00,29.4,16.4,30.12,NW,320,3.0,12.0,58,0.00,,,0.00,WUHU216DAVISVP2,2013-04-01 01:23:00,
2013-03-31 20:28:00,29.2,16.3,30.13,NNW,328,7.0,12.0,58,0.00,,,0.00,WUHU216DAVISVP2,2013-04-01 01:28:00,
2013-03-31 20:30:00,29.1,16.1,30.12,NW,315,4.0,13.0,58,0.00,,,0.00,WUHU216DAVISVP2,2013-04-01 01:30:00,
2013-03-31 20:33:00,29.0,16.1,30.13,NNW,327,5.0,12.0,58,0.00,,,0.00,WUHU216DAVISVP2,2013-04-01 01:33:00,
2013-03-31 20:38:00,28.9,16.8,30.13,NNW,335,4.0,12.0,60,0.00,,,0.00,WUHU216DAVISVP2,2013-04-01 01:38:00,
2013-03-31 20:43:00,28.8,16.7,30.13,NNW,328,3.0,11.0,60,0.00,,,0.00,WUHU216DAVISVP2,2013-04-01 01:43:00,
2013-03-31 20:48:00,28.7,17.0,30.14,NW,322,3.0,11.0,61,0.00,,,0.00,WUHU216DAVISVP2,2013-04-01 01:48:00,
2013-03-31 20:53:00,28.6,17.3,30.14,NNW,336,2.0,11.0,62,0.00,,,0.00,WUHU216DAVISVP2,2013-04-01 01:53:00,
2013-03-31 20:58:00,28.6,17.7,30.14,NW,322,5.0,11.0,63,0.00,,,0.00,WUHU216DAVISVP2,2013-04-01 01:58:00,
2013-03-31 21:00:00,28.5,17.5,30.14,NNW,338,3.0,11.0,63,0.00,,,0.00,WUHU216DAVISVP2,2013-04-01 02:00:00,
2013-03-31 21:03:00,28.5,17.6,30.14,NNW,329,4.0,7.0,63,0.00,,,0.00,WUHU216DAVISVP2,2013-04-01 02:03:00,
2013-03-31 21:08:00,28.4,17.8,30.14,NNW,332,3.0,7.0,64,0.00,,,0.00,WUHU216DAVISVP2,2013-04-01 02:08:00,
2013-03-31 21:13:00,28.3,17.7,30.14,NW,326,1.0,7.0,64,0.00,,,0.00,WUHU216DAVISVP2,2013-04-01 02:13:00,
2013-03-31 21:18:00,28.2,17.6,30.15,NW,323,3.0,7.0,64,0.00,,,0.00,WUHU216DAVISVP2,2013-04-01 02:18:00,
2013-03-31 21:23:00,28.1,17.5,30.15,NNE,16,4.0,12.0,64,0.00,,,0.00,WUHU216DAVISVP2,2013-04-01 02:23:00,
2013-03-31 21:28:00,28.0,17.4,30.15,NNW,333,4.0,12.0,64,0.00,,,0.00,WUHU216DAVISVP2,2013-04-01 02:28:00,
2013-03-31 21:30:00,27.9,17.3,30.15,NNW,338,3.0,12.0,64,0.00,,,0.00,WUHU216DAVISVP2,2013-04-01 02:30:00,
2013-03-31 21:33:00,27.8,17.3,30.16,NNW,328,5.0,12.0,64,0.00,,,0.00,WUHU216DAVISVP2,2013-04-01 02:33:00,
2013-03-31 21:38:00,27.7,17.2,30.16,North,1,5.0,12.0,64,0.00,,,0.00,WUHU216DAVISVP2,2013-04-01 02:38:00,
2013-03-31 21:43:00,27.6,17.1,30.16,NW,311,4.0,11.0,64,0.00,,,0.00,WUHU216DAVISVP2,2013-04-01 02:43:00,
2013-03-31 21:48:00,27.5,17.3,30.17,NW,313,5.0,11.0,65,0.00,,,0.00,WUHU216DAVISVP2,2013-04-01 02:48:00,
2013-03-31 21:53:00,27.4,17.2,30.17,NW,322,4.0,9.0,65,0.00,,,0.00,WUHU216DAVISVP2,2013-04-01 02:53:00,
2013-03-31 21:58:00,27.3,17.5,30.17,NNE,20,5.0,9.0,66,0.00,,,0.00,WUHU216DAVISVP2,2013-04-01 02:58:00,
2013-03-31 22:00:00,27.2,17.3,30.17,NNW,338,4.0,11.0,66,0.00,,,0.00,WUHU216DAVISVP2,2013-04-01 03:00:00,
2013-03-31 22:03:00,27.1,17.2,30.17,ENE,62,3.0,9.0,66,0.00,,,0.00,WUHU216DAVISVP2,2013-04-01 03:03:00,
2013-03-31 22:08:00,27.0,17.6,30.17,NNW,344,4.0,9.0,67,0.00,,,0.00,WUHU216DAVISVP2,2013-04-01 03:08:00,
2013-03-31 22:13:00,26.8,17.4,30.18,NNW,333,5.0,10.0,67,0.00,,,0.00,WUHU216DAVISVP2,2013-04-01 03:13:00,
2013-03-31 22:18:00,26.7,17.2,30.18,NW,326,3.0,10.0,67,0.00,,,0.00,WUHU216DAVISVP2,2013-04-01 03:18:00,
2013-03-31 22:23:00,26.6,17.5,30.18,NNW,342,3.0,10.0,68,0.00,,,0.00,WUHU216DAVISVP2,2013-04-01 03:23:00,
2013-03-31 22:28:00,26.4,17.3,30.19,North,359,2.0,10.0,68,0.00,,,0.00,WUHU216DAVISVP2,2013-04-01 03:28:00,
2013-03-31 22:30:00,26.3,16.8,30.18,NNW,338,3.0,10.0,67,0.00,,,0.00,WUHU216DAVISVP2,2013-04-01 03:30:00,
2013-03-31 22:33:00,26.2,16.8,30.18,North,349,4.0,10.0,67,0.00,,,0.00,WUHU216DAVISVP2,2013-04-01 03:33:00,
2013-03-31 22:38:00,26.1,16.7,30.19,NW,306,6.0,10.0,67,0.00,,,0.00,WUHU216DAVISVP2,2013-04-01 03:38:00,
2013-03-31 22:43:00,26.0,16.6,30.19,NW,326,3.0,10.0,67,0.00,,,0.00,WUHU216DAVISVP2,2013-04-01 03:43:00,
2013-03-31 22:48:00,25.9,16.5,30.19,NNW,337,4.0,11.0,67,0.00,,,0.00,WUHU216DAVISVP2,2013-04-01 03:48:00,
2013-03-31 22:53:00,25.7,16.7,30.19,NNW,336,2.0,11.0,68,0.00,,,0.00,WUHU216DAVISVP2,2013-04-01 03:53:00,
2013-03-31 22:58:00,25.6,16.2,30.19,NNW,348,1.0,11.0,67,0.00,,,0.00,WUHU216DAVISVP2,2013-04-01 03:58:00,
2013-03-31 23:00:00,25.6,16.2,30.19,NNW,333,2.0,11.0,67,0.00,,,0.00,WUHU216DAVISVP2,2013-04-01 04:00:00,
2013-03-31 23:05:00,25.4,16.4,30.19,NNW,335,2.0,11.0,68,0.00,,,0.00,WUHU216DAVISVP2,2013-04-01 04:05:00,
2013-03-31 23:10:00,25.3,16.2,30.19,NNW,335,4.0,6.0,68,0.00,,,0.00,WUHU216DAVISVP2,2013-04-01 04:10:00,
2013-03-31 23:12:00,25.3,16.2,30.19,NNW,340,2.0,6.0,68,0.00,,,0.00,WUHU216DAVISVP2,2013-04-01 04:12:00,
2013-03-31 23:17:00,25.2,16.5,30.19,North,354,4.0,6.0,69,0.00,,,0.00,WUHU216DAVISVP2,2013-04-01 04:17:00,
2013-03-31 23:22:00,25.1,16.4,30.19,North,2,3.0,6.0,69,0.00,,,0.00,WUHU216DAVISVP2,2013-04-01 04:22:00,
2013-03-31 23:27:00,25.0,16.6,30.19,NW,322,3.0,6.0,70,0.00,,,0.00,WUHU216DAVISVP2,2013-04-01 04:27:00,
2013-03-31 23:30:00,25.0,16.6,30.19,NNW,338,2.0,6.0,70,0.00,,,0.00,WUHU216DAVISVP2,2013-04-01 04:30:00,
2013-03-31 23:32:00,24.9,16.5,30.19,NW,322,2.0,6.0,70,0.00,,,0.00,WUHU216DAVISVP2,2013-04-01 04:32:00,
2013-03-31 23:37:00,24.8,16.4,30.19,NNW,347,2.0,7.0,70,0.00,,,0.00,WUHU216DAVISVP2,2013-04-01 04:37:00,
2013-03-31 23:42:00,24.7,16.7,30.19,NW,322,3.0,7.0,71,0.00,,,0.00,WUHU216DAVISVP2,2013-04-01 04:42:00,
2013-03-31 23:47:00,24.6,16.6,30.19,NNW,338,4.0,7.0,71,0.00,,,0.00,WUHU216DAVISVP2,2013-04-01 04:47:00,
2013-03-31 23:52:00,24.5,16.5,30.19,WNW,300,4.0,7.0,71,0.00,,,0.00,WUHU216DAVISVP2,2013-04-01 04:52:00,
2013-03-31 23:57:00,24.4,16.7,30.19,NNW,343,2.0,6.0,72,0.00,,,0.00,WUHU216DAVISVP2,2013-04-01 04:57:00,